Time;durP1;ratioP1;P1;durP2;ratioP2;P2;SDS_P1;SDS_P2;PMS_P1;PMS_P2;Temp;Humidity;BMP_temperature;BMP_pressure;BME280_temperature;BME280_humidity;BME280_pressure;Samples;Min_cycle;Max_cycle;Signal;HPM_P1;HPM_P2
2022/05/19 00:01:30;;;;;;;10.43;4.77;;;;;;;;;;5099047;28;20229;-75
2022/05/19 00:03:58;;;;;;;6.77;4.43;;;;;;;;;;5099441;28;20206;-77
2022/05/19 00:06:27;;;;;;;8.97;4.37;;;;;;;;;;5099146;28;20231;-75
2022/05/19 00:08:55;;;;;;;8.70;4.30;;;;;;;;;;5098749;28;20642;-75
2022/05/19 00:11:27;;;;;;;9.80;5.27;;;;;;;;;;5098790;28;20623;-77
2022/05/19 00:13:55;;;;;;;10.67;4.63;;;;;;;;;;5098709;28;20243;-77
2022/05/19 00:16:24;;;;;;;5.77;4.30;;;;;;;;;;5098779;28;20621;-76
2022/05/19 00:18:52;;;;;;;8.53;4.20;;;;;;;;;;5098713;28;20572;-75
2022/05/19 00:21:23;;;;;;;7.70;4.83;;;;;;;;;;5099160;28;20208;-77
2022/05/19 00:23:51;;;;;;;8.40;4.20;;;;;;;;;;5098641;28;20562;-77
2022/05/19 00:26:27;;;;;;;8.17;4.17;;;;;;;;;;5098460;28;20303;-77
2022/05/19 00:28:55;;;;;;;8.93;4.60;;;;;;;;;;5098340;28;20210;-77
2022/05/19 00:31:26;;;;;;;9.47;4.73;;;;;;;;;;5098690;28;20206;-77
2022/05/19 00:33:54;;;;;;;8.50;6.13;;;;;;;;;;5089804;28;20661;-76
2022/05/19 00:36:22;;;;;;;8.07;4.20;;;;;;;;;;5098450;28;20279;-75
2022/05/19 00:38:50;;;;;;;6.63;4.40;;;;;;;;;;5098633;28;20205;-75
2022/05/19 00:41:18;;;;;;;8.10;4.57;;;;;;;;;;5098378;28;20738;-75
2022/05/19 00:43:47;;;;;;;4.73;4.00;;;;;;;;;;5098136;28;20562;-75
2022/05/19 00:46:19;;;;;;;8.70;4.80;;;;;;;;;;5098246;28;20237;-75
2022/05/19 00:48:50;;;;;;;8.63;4.57;;;;;;;;;;5098289;28;20205;-75
2022/05/19 00:51:19;;;;;;;9.33;4.87;;;;;;;;;;5098454;28;20202;-75
2022/05/19 00:53:49;;;;;;;9.30;4.10;;;;;;;;;;5098440;28;20244;-76
2022/05/19 00:56:19;;;;;;;8.87;4.10;;;;;;;;;;5098222;28;20262;-75
2022/05/19 00:58:49;;;;;;;8.83;4.10;;;;;;;;;;5097928;28;20210;-76
2022/05/19 01:01:18;;;;;;;9.77;4.60;;;;;;;;;;5097936;28;20238;-78
2022/05/19 01:03:49;;;;;;;12.13;6.50;;;;;;;;;;5098359;28;20248;-78
2022/05/19 01:06:19;;;;;;;6.20;4.27;;;;;;;;;;5098151;28;20238;-76
2022/05/19 01:08:50;;;;;;;6.50;3.83;;;;;;;;;;5098180;28;20256;-76
2022/05/19 01:11:18;;;;;;;11.03;4.80;;;;;;;;;;5097879;28;20573;-78
2022/05/19 01:13:46;;;;;;;8.50;4.13;;;;;;;;;;5097979;28;20232;-78
2022/05/19 01:16:14;;;;;;;6.77;4.00;;;;;;;;;;5098218;28;20254;-77
2022/05/19 01:18:43;;;;;;;4.93;4.00;;;;;;;;;;5097695;28;20264;-76
2022/05/19 01:21:12;;;;;;;11.47;3.80;;;;;;;;;;5098100;28;20243;-77
2022/05/19 01:23:48;;;;;;;7.20;4.40;;;;;;;;;;5097832;28;20216;-77
2022/05/19 01:26:21;;;;;;;10.87;4.67;;;;;;;;;;5097814;28;20271;-77
2022/05/19 01:28:50;;;;;;;4.73;4.23;;;;;;;;;;5097531;28;20201;-77
2022/05/19 01:31:28;;;;;;;10.57;4.27;;;;;;;;;;5097885;28;20233;-77
2022/05/19 01:33:57;;;;;;;9.80;4.70;;;;;;;;;;5089184;28;20205;-77
2022/05/19 01:36:25;;;;;;;6.80;4.10;;;;;;;;;;5097578;28;20725;-77
2022/05/19 01:38:58;;;;;;;6.07;4.43;;;;;;;;;;5097442;28;20617;-75
2022/05/19 01:41:31;;;;;;;6.10;3.73;;;;;;;;;;5097880;28;20238;-76
2022/05/19 01:44:05;;;;;;;7.83;4.40;;;;;;;;;;5098194;28;20704;-77
2022/05/19 01:46:34;;;;;;;5.53;3.90;;;;;;;;;;5101523;28;20232;-77
2022/05/19 01:49:08;;;;;;;9.27;4.47;;;;;;;;;;5102023;28;20244;-78
2022/05/19 01:51:39;;;;;;;11.27;4.53;;;;;;;;;;5101652;28;20246;-78
2022/05/19 01:54:09;;;;;;;7.33;4.60;;;;;;;;;;5101901;28;20211;-78
2022/05/19 01:56:40;;;;;;;7.47;3.70;;;;;;;;;;5101584;28;20280;-78
2022/05/19 01:59:15;;;;;;;11.20;5.30;;;;;;;;;;5101200;28;20612;-76
2022/05/19 02:01:47;;;;;;;4.87;3.30;;;;;;;;;;5101478;28;20255;-78
2022/05/19 02:04:18;;;;;;;7.67;3.90;;;;;;;;;;5101721;28;20283;-77
2022/05/19 02:06:47;;;;;;;6.13;4.20;;;;;;;;;;5101595;28;20228;-77
2022/05/19 02:09:18;;;;;;;10.13;4.17;;;;;;;;;;5101333;28;20205;-77
2022/05/19 02:11:49;;;;;;;9.93;4.37;;;;;;;;;;5101469;28;20243;-75
2022/05/19 02:14:20;;;;;;;8.20;4.33;;;;;;;;;;5100931;28;20260;-75
2022/05/19 02:16:49;;;;;;;9.47;4.60;;;;;;;;;;5101112;28;20244;-75
2022/05/19 02:19:20;;;;;;;4.87;3.73;;;;;;;;;;5101243;28;20250;-75
2022/05/19 02:21:48;;;;;;;9.33;4.80;;;;;;;;;;5101487;28;20208;-75
2022/05/19 02:24:18;;;;;;;6.07;3.43;;;;;;;;;;5100904;28;20234;-77
2022/05/19 02:26:46;;;;;;;6.53;4.33;;;;;;;;;;5100787;28;20279;-77
2022/05/19 02:29:17;;;;;;;5.73;3.60;;;;;;;;;;5100855;28;20202;-77
2022/05/19 02:31:46;;;;;;;6.23;4.10;;;;;;;;;;5100572;28;20670;-74
2022/05/19 02:34:15;;;;;;;10.13;4.13;;;;;;;;;;5092484;28;20214;-74
2022/05/19 02:36:43;;;;;;;5.37;3.77;;;;;;;;;;5101001;28;20261;-75
2022/05/19 02:39:12;;;;;;;9.27;4.63;;;;;;;;;;5100625;28;20613;-75
2022/05/19 02:41:40;;;;;;;12.17;4.60;;;;;;;;;;5101029;28;20243;-74
2022/05/19 02:44:08;;;;;;;7.40;4.33;;;;;;;;;;5100756;28;20212;-75
2022/05/19 02:46:36;;;;;;;7.83;4.23;;;;;;;;;;5100532;28;20273;-75
2022/05/19 02:49:05;;;;;;;9.00;4.90;;;;;;;;;;5100936;28;20206;-75
2022/05/19 02:51:36;;;;;;;7.43;4.70;;;;;;;;;;5100741;28;20206;-75
2022/05/19 02:54:04;;;;;;;8.37;4.40;;;;;;;;;;5100406;28;20202;-75
2022/05/19 02:56:32;;;;;;;6.43;4.73;;;;;;;;;;5100539;28;20219;-74
2022/05/19 02:59:00;;;;;;;4.70;4.17;;;;;;;;;;5100205;28;20210;-75
2022/05/19 03:01:28;;;;;;;7.57;4.70;;;;;;;;;;5100208;28;20264;-76
2022/05/19 03:03:56;;;;;;;5.93;4.50;;;;;;;;;;5100701;28;20215;-76
2022/05/19 03:06:29;;;;;;;8.53;4.63;;;;;;;;;;5100410;28;20279;-75
2022/05/19 03:08:57;;;;;;;8.93;4.73;;;;;;;;;;5099963;28;20255;-75
2022/05/19 03:11:25;;;;;;;6.37;5.07;;;;;;;;;;5100570;28;20243;-75
2022/05/19 03:13:53;;;;;;;13.13;4.57;;;;;;;;;;5100232;28;20213;-75
2022/05/19 03:16:21;;;;;;;5.83;4.53;;;;;;;;;;5099936;28;20260;-75
2022/05/19 03:18:49;;;;;;;7.33;4.77;;;;;;;;;;5100139;28;20216;-76
2022/05/19 03:21:17;;;;;;;11.80;4.73;;;;;;;;;;5100400;28;20217;-76
2022/05/19 03:23:46;;;;;;;7.33;4.73;;;;;;;;;;5100049;28;20217;-76
2022/05/19 03:26:14;;;;;;;8.43;4.27;;;;;;;;;;5100062;28;20265;-75
2022/05/19 03:28:42;;;;;;;9.73;4.40;;;;;;;;;;5099855;28;20237;-76
2022/05/19 03:31:10;;;;;;;9.73;4.33;;;;;;;;;;5099859;28;20616;-76
2022/05/19 03:33:38;;;;;;;7.30;4.57;;;;;;;;;;5091654;28;20221;-76
2022/05/19 03:36:07;;;;;;;9.60;4.77;;;;;;;;;;5099404;28;20283;-76
2022/05/19 03:38:36;;;;;;;7.13;5.47;;;;;;;;;;5099360;28;20572;-74
2022/05/19 03:41:05;;;;;;;6.40;4.40;;;;;;;;;;5099770;28;20208;-74
2022/05/19 03:43:33;;;;;;;11.50;4.50;;;;;;;;;;5099290;28;20237;-74
2022/05/19 03:46:02;;;;;;;7.40;4.37;;;;;;;;;;5099746;28;20268;-74
2022/05/19 03:48:32;;;;;;;8.27;4.43;;;;;;;;;;5099192;28;20643;-74
2022/05/19 03:51:00;;;;;;;7.17;4.23;;;;;;;;;;5099762;28;20255;-74
2022/05/19 03:53:28;;;;;;;10.20;5.13;;;;;;;;;;5099369;28;20235;-74
2022/05/19 03:55:56;;;;;;;9.13;4.53;;;;;;;;;;5099348;28;20282;-74
2022/05/19 03:58:25;;;;;;;8.00;4.70;;;;;;;;;;5098847;28;20206;-74
2022/05/19 04:00:53;;;;;;;7.27;4.07;;;;;;;;;;5099004;28;20252;-76
2022/05/19 04:03:21;;;;;;;7.40;4.43;;;;;;;;;;5099564;28;20237;-75
2022/05/19 04:05:49;;;;;;;5.77;4.03;;;;;;;;;;5099249;28;20226;-73
2022/05/19 04:08:17;;;;;;;8.10;4.47;;;;;;;;;;5098483;28;20590;-73
2022/05/19 04:10:50;;;;;;;10.63;4.30;;;;;;;;;;5099206;28;20288;-64
2022/05/19 04:13:18;;;;;;;7.80;4.20;;;;;;;;;;5098639;28;20646;-64
2022/05/19 04:15:48;;;;;;;6.17;3.87;;;;;;;;;;5098525;28;20229;-64
2022/05/19 04:18:16;;;;;;;5.80;3.90;;;;;;;;;;5098974;28;20260;-63
2022/05/19 04:20:44;;;;;;;13.63;4.70;;;;;;;;;;5098381;28;20209;-63
2022/05/19 04:23:12;;;;;;;6.20;4.97;;;;;;;;;;5098647;28;20209;-63
2022/05/19 04:25:41;;;;;;;8.23;4.43;;;;;;;;;;5098597;28;20229;-63
2022/05/19 04:28:10;;;;;;;12.10;4.17;;;;;;;;;;5098635;28;20226;-63
2022/05/19 04:30:38;;;;;;;8.17;5.43;;;;;;;;;;5098410;28;20627;-63
2022/05/19 04:33:07;;;;;;;8.70;4.47;;;;;;;;;;5092161;28;20214;-63
2022/05/19 04:35:35;;;;;;;7.03;4.70;;;;;;;;;;5097215;28;20225;-64
2022/05/19 04:38:06;;;;;;;11.17;4.37;;;;;;;;;;5098464;28;20230;-63
2022/05/19 04:40:36;;;;;;;10.23;4.57;;;;;;;;;;5098545;28;20241;-64
2022/05/19 04:43:11;;;;;;;6.83;4.43;;;;;;;;;;5098207;28;20201;-64
2022/05/19 04:45:39;;;;;;;8.23;4.57;;;;;;;;;;5098383;28;20260;-63
2022/05/19 04:48:09;;;;;;;6.33;4.40;;;;;;;;;;5098477;28;20261;-76
2022/05/19 04:50:37;;;;;;;7.47;4.80;;;;;;;;;;5098600;28;20213;-78
2022/05/19 04:53:05;;;;;;;7.40;4.40;;;;;;;;;;5098362;28;20237;-76
2022/05/19 04:55:35;;;;;;;6.70;4.17;;;;;;;;;;5098208;28;20668;-76
2022/05/19 04:58:03;;;;;;;9.53;4.53;;;;;;;;;;5097809;28;20240;-76
2022/05/19 05:00:31;;;;;;;9.00;4.00;;;;;;;;;;5098392;28;20250;-76
2022/05/19 05:02:59;;;;;;;9.03;4.57;;;;;;;;;;5097909;28;20708;-76
2022/05/19 05:05:29;;;;;;;7.17;4.73;;;;;;;;;;5098285;28;20226;-76
2022/05/19 05:07:57;;;;;;;7.43;4.10;;;;;;;;;;5097724;28;20267;-76
2022/05/19 05:10:25;;;;;;;8.87;4.27;;;;;;;;;;5097919;28;20260;-76
2022/05/19 05:12:53;;;;;;;4.50;3.57;;;;;;;;;;5097679;28;20239;-76
2022/05/19 05:15:21;;;;;;;10.03;4.97;;;;;;;;;;5098212;28;20228;-76
2022/05/19 05:17:49;;;;;;;8.70;4.40;;;;;;;;;;5097232;28;20198;-76
2022/05/19 05:20:17;;;;;;;7.33;3.83;;;;;;;;;;5097262;28;20230;-76
2022/05/19 05:22:47;;;;;;;8.70;4.60;;;;;;;;;;5097579;28;20261;-76
2022/05/19 05:25:16;;;;;;;8.47;4.10;;;;;;;;;;5097715;28;20233;-76
2022/05/19 05:27:44;;;;;;;9.67;4.47;;;;;;;;;;5097554;28;20282;-76
2022/05/19 05:30:13;;;;;;;8.43;4.43;;;;;;;;;;5097535;28;20713;-76
2022/05/19 05:32:41;;;;;;;5.07;3.93;;;;;;;;;;5095042;28;20259;-76
2022/05/19 05:35:10;;;;;;;8.53;5.73;;;;;;;;;;5092530;28;20649;-76
2022/05/19 05:37:38;;;;;;;8.80;4.63;;;;;;;;;;5097805;28;20231;-76
2022/05/19 05:40:10;;;;;;;7.93;4.03;;;;;;;;;;5097507;28;20210;-76
2022/05/19 05:42:38;;;;;;;9.30;4.80;;;;;;;;;;5097391;28;20688;-77
2022/05/19 05:45:07;;;;;;;10.17;4.73;;;;;;;;;;5097533;28;20235;-76
2022/05/19 05:47:35;;;;;;;10.10;3.80;;;;;;;;;;5097299;28;20262;-76
2022/05/19 05:50:10;;;;;;;6.20;3.30;;;;;;;;;;5097697;28;20242;-76
2022/05/19 05:52:38;;;;;;;8.13;3.57;;;;;;;;;;5097654;28;20208;-76
2022/05/19 05:55:08;;;;;;;10.97;4.27;;;;;;;;;;5097465;28;20284;-76
2022/05/19 05:57:36;;;;;;;9.87;4.43;;;;;;;;;;5096070;28;20225;-75
2022/05/19 06:00:05;;;;;;;11.13;4.23;;;;;;;;;;5096739;28;20196;-75
2022/05/19 06:02:33;;;;;;;7.80;4.53;;;;;;;;;;5096725;28;20595;-65
2022/05/19 06:05:08;;;;;;;10.93;4.33;;;;;;;;;;5094534;28;20562;-64
2022/05/19 06:07:36;;;;;;;12.77;5.20;;;;;;;;;;5096885;28;20201;-64
2022/05/19 06:10:05;;;;;;;13.00;4.07;;;;;;;;;;5096808;28;20202;-65
2022/05/19 06:12:34;;;;;;;8.20;4.27;;;;;;;;;;5096711;28;20198;-65
2022/05/19 06:15:07;;;;;;;12.20;4.43;;;;;;;;;;5094032;28;20201;-65
2022/05/19 06:17:35;;;;;;;7.27;4.43;;;;;;;;;;5096974;28;20636;-65
2022/05/19 06:20:04;;;;;;;7.27;4.73;;;;;;;;;;5097440;28;20211;-65
2022/05/19 06:22:32;;;;;;;10.13;4.30;;;;;;;;;;5097118;28;20696;-65
2022/05/19 06:25:00;;;;;;;10.10;4.30;;;;;;;;;;5097117;28;20215;-68
2022/05/19 06:27:28;;;;;;;7.10;3.67;;;;;;;;;;5097098;28;20207;-69
2022/05/19 06:29:58;;;;;;;14.80;4.83;;;;;;;;;;5096427;28;20248;-68
2022/05/19 06:32:26;;;;;;;11.33;5.13;;;;;;;;;;5099651;28;20234;-68
2022/05/19 06:34:54;;;;;;;5.80;4.30;;;;;;;;;;5099408;28;20235;-67
2022/05/19 06:37:22;;;;;;;9.10;4.00;;;;;;;;;;5099696;28;20220;-67
2022/05/19 06:39:50;;;;;;;10.93;4.57;;;;;;;;;;5095626;28;20281;-67
2022/05/19 06:42:18;;;;;;;8.47;4.07;;;;;;;;;;5097392;28;20225;-67
2022/05/19 06:44:46;;;;;;;8.50;3.77;;;;;;;;;;5100284;28;20211;-68
2022/05/19 06:47:15;;;;;;;5.33;3.97;;;;;;;;;;5100213;28;20213;-68
2022/05/19 06:49:44;;;;;;;9.70;3.83;;;;;;;;;;5095480;28;20263;-68
2022/05/19 06:52:13;;;;;;;11.90;3.90;;;;;;;;;;5099878;28;20234;-68
2022/05/19 06:54:42;;;;;;;10.90;4.47;;;;;;;;;;5092492;28;20226;-68
2022/05/19 06:57:10;;;;;;;10.57;5.17;;;;;;;;;;5099810;28;20258;-69
2022/05/19 06:59:38;;;;;;;8.43;3.87;;;;;;;;;;5099806;28;20203;-69
2022/05/19 07:02:06;;;;;;;12.00;4.13;;;;;;;;;;5098040;28;20229;-69
2022/05/19 07:04:36;;;;;;;11.33;4.80;;;;;;;;;;5098584;28;20205;-68
2022/05/19 07:07:05;;;;;;;14.50;4.30;;;;;;;;;;5096221;28;20250;-68
2022/05/19 07:09:34;;;;;;;14.20;4.30;;;;;;;;;;5098347;28;20271;-69
2022/05/19 07:12:02;;;;;;;8.57;4.17;;;;;;;;;;5095936;28;20233;-68
2022/05/19 07:14:32;;;;;;;8.67;3.93;;;;;;;;;;5098413;28;20226;-68
2022/05/19 07:17:00;;;;;;;10.57;3.90;;;;;;;;;;5098706;28;20257;-68
2022/05/19 07:22:23;;;;;;;6.97;3.40;;;;;;;;;;5097888;28;20197;-68
2022/05/19 07:24:52;;;;;;;9.00;3.80;;;;;;;;;;5096808;28;20210;-68
2022/05/19 07:27:20;;;;;;;10.50;3.83;;;;;;;;;;5099149;28;20250;-67
2022/05/19 07:29:48;;;;;;;6.47;3.60;;;;;;;;;;5098887;28;20255;-66
2022/05/19 07:32:20;;;;;;;10.77;3.90;;;;;;;;;;5098673;28;20553;-67
2022/05/19 07:34:49;;;;;;;6.03;3.00;;;;;;;;;;5097103;28;20265;-68
2022/05/19 07:37:17;;;;;;;8.40;3.90;;;;;;;;;;5099225;28;20227;-65
2022/05/19 07:39:45;;;;;;;6.87;3.00;;;;;;;;;;5097781;28;20193;-66
2022/05/19 07:42:13;;;;;;;6.77;3.63;;;;;;;;;;5097646;28;20677;-65
2022/05/19 07:44:42;;;;;;;12.70;3.57;;;;;;;;;;5098165;28;20202;-65
2022/05/19 07:47:10;;;;;;;5.57;3.37;;;;;;;;;;5099354;28;20234;-64
2022/05/19 07:49:38;;;;;;;8.53;3.80;;;;;;;;;;5098365;28;20651;-70
2022/05/19 07:52:07;;;;;;;7.13;3.60;;;;;;;;;;5096215;28;20233;-70
2022/05/19 07:54:36;;;;;;;5.00;3.20;;;;;;;;;;5098614;28;20660;-70
2022/05/19 07:57:05;;;;;;;7.30;3.47;;;;;;;;;;5098501;28;20255;-69
2022/05/19 07:59:33;;;;;;;8.30;3.07;;;;;;;;;;5098809;28;20193;-69
2022/05/19 08:02:01;;;;;;;8.43;3.00;;;;;;;;;;5098058;28;20234;-70
2022/05/19 08:04:29;;;;;;;8.90;3.33;;;;;;;;;;5098649;28;20226;-70
2022/05/19 08:06:57;;;;;;;9.80;3.23;;;;;;;;;;5098266;28;20266;-71
2022/05/19 08:12:15;;;;;;;8.20;3.73;;;;;;;;;;5095442;28;20567;-71
2022/05/19 08:17:31;;;;;;;11.40;2.77;;;;;;;;;;5098067;28;20227;-71
2022/05/19 08:20:00;;;;;;;7.63;3.40;;;;;;;;;;5098255;28;20202;-71
2022/05/19 08:22:28;;;;;;;5.30;2.80;;;;;;;;;;5098081;28;20204;-72
2022/05/19 08:24:58;;;;;;;7.50;2.77;;;;;;;;;;5097801;28;20202;-73
2022/05/19 08:27:26;;;;;;;5.93;2.90;;;;;;;;;;5097723;28;20580;-74
2022/05/19 08:29:54;;;;;;;7.40;3.60;;;;;;;;;;5098280;28;20253;-73
2022/05/19 08:32:24;;;;;;;7.60;2.60;;;;;;;;;;5097399;28;20209;-73
2022/05/19 08:34:52;;;;;;;3.80;2.27;;;;;;;;;;5085793;28;20218;-73
2022/05/19 08:37:21;;;;;;;5.57;2.53;;;;;;;;;;5097728;28;20636;-73
2022/05/19 08:39:49;;;;;;;6.40;2.70;;;;;;;;;;5097642;28;20233;-73
2022/05/19 08:42:19;;;;;;;5.73;2.53;;;;;;;;;;5097600;28;20205;-73
2022/05/19 08:44:51;;;;;;;6.90;3.13;;;;;;;;;;5087649;28;20617;-73
2022/05/19 08:47:21;;;;;;;4.77;2.50;;;;;;;;;;5097999;28;20227;-73
2022/05/19 08:49:51;;;;;;;6.60;2.77;;;;;;;;;;5098354;28;20225;-73
2022/05/19 08:52:20;;;;;;;13.30;3.53;;;;;;;;;;5097903;28;20654;-73
2022/05/19 08:54:49;;;;;;;6.60;2.93;;;;;;;;;;5098025;28;20240;-73
2022/05/19 08:57:22;;;;;;;6.03;2.57;;;;;;;;;;5097527;28;20270;-73
2022/05/19 08:59:56;;;;;;;7.13;2.47;;;;;;;;;;5098109;28;20235;-73
2022/05/19 09:02:28;;;;;;;7.20;2.47;;;;;;;;;;5097700;28;20294;-73
2022/05/19 09:05:01;;;;;;;10.20;2.90;;;;;;;;;;5097814;28;20679;-73
2022/05/19 09:10:23;;;;;;;6.50;2.85;;;;;;;;;;5097587;28;20697;-73
2022/05/19 09:12:56;;;;;;;4.63;2.53;;;;;;;;;;5097675;28;20209;-73
2022/05/19 09:15:24;;;;;;;9.52;4.97;;;;;;;;;;5097453;28;20704;-73
2022/05/19 09:17:52;;;;;;;8.67;2.77;;;;;;;;;;5097798;28;20254;-72
2022/05/19 09:20:21;;;;;;;6.17;2.70;;;;;;;;;;5087843;28;20633;-73
2022/05/19 09:22:49;;;;;;;32.83;9.30;;;;;;;;;;5097622;28;20242;-73
2022/05/19 09:25:20;;;;;;;10.73;3.43;;;;;;;;;;5097536;28;20218;-73
2022/05/19 09:27:49;;;;;;;2.93;2.50;;;;;;;;;;5097525;28;20248;-73
2022/05/19 09:30:31;;;;;;;6.00;2.73;;;;;;;;;;5097406;28;20227;-72
2022/05/19 09:32:59;;;;;;;12.10;3.67;;;;;;;;;;5079388;28;20266;-73
2022/05/19 09:35:31;;;;;;;8.57;3.30;;;;;;;;;;5092162;28;20292;-73
2022/05/19 09:38:06;;;;;;;5.60;3.60;;;;;;;;;;5096025;28;20206;-73
2022/05/19 09:40:37;;;;;;;6.93;3.23;;;;;;;;;;5095917;28;20229;-73
2022/05/19 09:43:15;;;;;;;6.97;3.27;;;;;;;;;;5097199;28;20297;-73
2022/05/19 09:45:46;;;;;;;4.13;3.00;;;;;;;;;;5096232;28;20310;-73
2022/05/19 09:48:14;;;;;;;3.53;2.40;;;;;;;;;;5097186;28;20211;-73
2022/05/19 09:50:44;;;;;;;6.67;3.27;;;;;;;;;;5096878;28;20228;-72
2022/05/19 09:53:14;;;;;;;12.87;3.60;;;;;;;;;;5097432;28;20684;-74
2022/05/19 09:55:43;;;;;;;6.40;2.97;;;;;;;;;;5097066;28;20226;-72
2022/05/19 09:58:11;;;;;;;4.07;2.50;;;;;;;;;;5097010;28;20236;-74
2022/05/19 10:00:43;;;;;;;5.60;3.07;;;;;;;;;;5097390;28;20236;-73
2022/05/19 10:03:18;;;;;;;6.03;3.10;;;;;;;;;;5097189;28;20209;-73
2022/05/19 10:05:47;;;;;;;3.93;2.83;;;;;;;;;;5099205;28;20315;-74
2022/05/19 10:08:17;;;;;;;4.17;3.00;;;;;;;;;;5100933;28;20236;-72
2022/05/19 10:10:47;;;;;;;6.73;3.40;;;;;;;;;;5101246;28;20225;-74
2022/05/19 10:13:17;;;;;;;11.10;2.83;;;;;;;;;;5100861;28;20202;-72
2022/05/19 10:15:53;;;;;;;3.63;2.90;;;;;;;;;;5100960;28;20285;-72
2022/05/19 10:18:38;;;;;;;5.73;2.93;;;;;;;;;;5100731;28;20672;-72
2022/05/19 10:21:12;;;;;;;8.13;2.80;;;;;;;;;;5101114;28;20250;-72
2022/05/19 10:23:46;;;;;;;5.07;2.53;;;;;;;;;;5101038;28;20201;-72
2022/05/19 10:26:21;;;;;;;8.97;3.00;;;;;;;;;;5100644;28;20654;-72
2022/05/19 10:31:49;;;;;;;8.03;2.90;;;;;;;;;;5090744;28;20229;-72
2022/05/19 10:34:31;;;;;;;5.33;2.80;;;;;;;;;;5100563;28;20204;-73
2022/05/19 10:37:06;;;;;;;4.03;2.57;;;;;;;;;;5100877;28;20260;-72
2022/05/19 10:39:55;;;;;;;4.57;2.50;;;;;;;;;;5100797;28;20206;-72
2022/05/19 10:42:29;;;;;;;5.83;2.50;;;;;;;;;;5100438;28;20209;-72
2022/05/19 10:45:15;;;;;;;4.70;2.40;;;;;;;;;;5100624;28;20298;-73
2022/05/19 10:47:48;;;;;;;10.63;2.03;;;;;;;;;;5100741;28;20211;-74
2022/05/19 10:50:28;;;;;;;7.23;2.73;;;;;;;;;;5100467;28;20258;-73
2022/05/19 10:53:07;;;;;;;6.10;2.67;;;;;;;;;;5100437;28;20207;-72
2022/05/19 10:55:41;;;;;;;8.13;2.73;;;;;;;;;;5100430;28;20244;-72
2022/05/19 10:58:20;;;;;;;4.17;2.70;;;;;;;;;;5099845;28;20212;-73
2022/05/19 11:00:54;;;;;;;4.55;2.33;;;;;;;;;;5099990;28;20578;-74
2022/05/19 11:03:32;;;;;;;8.37;3.53;;;;;;;;;;5087041;28;20214;-72
2022/05/19 11:06:08;;;;;;;5.37;2.37;;;;;;;;;;5100235;28;20259;-72
2022/05/19 11:08:43;;;;;;;9.60;2.90;;;;;;;;;;5100023;28;20576;-74
2022/05/19 11:11:14;;;;;;;3.33;2.33;;;;;;;;;;5088178;28;20223;-72
2022/05/19 11:13:48;;;;;;;6.53;2.80;;;;;;;;;;5099300;28;20233;-73
2022/05/19 11:16:22;;;;;;;6.00;2.20;;;;;;;;;;5099083;28;20227;-73
2022/05/19 11:18:54;;;;;;;4.63;2.50;;;;;;;;;;5099867;28;20203;-72
2022/05/19 11:21:27;;;;;;;5.13;2.20;;;;;;;;;;5100611;28;20254;-74
2022/05/19 11:23:58;;;;;;;14.23;2.55;;;;;;;;;;5100011;28;20245;-64
2022/05/19 11:26:27;;;;;;;5.63;2.60;;;;;;;;;;5086872;28;20224;-65
2022/05/19 11:29:11;;;;;;;7.93;2.80;;;;;;;;;;5087982;28;20200;-65
2022/05/19 11:31:42;;;;;;;4.47;2.78;;;;;;;;;;5099323;28;20218;-66
2022/05/19 11:34:15;;;;;;;5.25;2.00;;;;;;;;;;5093444;28;20291;-67
2022/05/19 11:36:46;;;;;;;9.07;3.08;;;;;;;;;;5099204;28;20570;-66
2022/05/19 11:39:18;;;;;;;3.55;2.75;;;;;;;;;;5099320;28;20239;-66
2022/05/19 11:41:48;;;;;;;4.03;2.70;;;;;;;;;;5099228;28;20211;-66
2022/05/19 11:44:21;;;;;;;3.72;2.38;;;;;;;;;;5099593;28;20202;-63
2022/05/19 11:46:51;;;;;;;6.80;3.20;;;;;;;;;;5098697;28;20712;-66
2022/05/19 11:55:17;;;;;;;6.38;2.97;;;;;;;;;;5014112;28;20696;-65
2022/05/19 11:57:49;;;;;;;4.07;2.60;;;;;;;;;;5068101;28;20243;-66
2022/05/19 12:00:21;;;;;;;7.63;2.80;;;;;;;;;;5098628;28;20231;-65
2022/05/19 12:02:51;;;;;;;4.32;2.85;;;;;;;;;;5098416;28;20222;-64
2022/05/19 12:05:23;;;;;;;3.50;2.22;;;;;;;;;;5098356;28;20210;-67
2022/05/19 12:07:53;;;;;;;4.38;2.83;;;;;;;;;;5098378;28;20279;-67
2022/05/19 12:10:24;;;;;;;5.07;2.80;;;;;;;;;;5098372;28;20560;-67
2022/05/19 12:12:58;;;;;;;10.60;2.72;;;;;;;;;;5097862;28;20730;-67
2022/05/19 12:15:28;;;;;;;7.60;2.90;;;;;;;;;;5098195;28;20247;-67
2022/05/19 12:17:57;;;;;;;4.53;2.45;;;;;;;;;;5095746;28;20240;-67
2022/05/19 12:20:34;;;;;;;4.03;2.65;;;;;;;;;;5098146;28;20211;-67
2022/05/19 12:23:17;;;;;;;4.47;2.80;;;;;;;;;;5096789;28;20205;-67
2022/05/19 12:25:53;;;;;;;7.40;3.83;;;;;;;;;;5098825;28;20307;-76
2022/05/19 12:28:44;;;;;;;3.10;2.63;;;;;;;;;;5097718;28;20211;-75
2022/05/19 12:34:05;;;;;;;4.90;2.55;;;;;;;;;;5088671;28;20212;-74
2022/05/19 12:36:37;;;;;;;8.48;3.10;;;;;;;;;;5098264;28;20769;-73
2022/05/19 12:39:12;;;;;;;6.15;2.72;;;;;;;;;;5098156;28;20205;-74
2022/05/19 12:41:53;;;;;;;6.18;2.60;;;;;;;;;;5095454;28;20219;-74
2022/05/19 12:44:29;;;;;;;4.28;2.60;;;;;;;;;;5097472;28;20201;-75
2022/05/19 12:47:04;;;;;;;4.22;2.67;;;;;;;;;;5096529;28;20221;-74
2022/05/19 12:49:35;;;;;;;8.05;2.90;;;;;;;;;;5096598;28;20208;-74
2022/05/19 12:52:08;;;;;;;8.48;2.47;;;;;;;;;;5098308;28;20229;-74
2022/05/19 12:54:50;;;;;;;9.88;3.05;;;;;;;;;;5097447;28;20719;-74
2022/05/19 12:57:26;;;;;;;8.93;2.70;;;;;;;;;;5097760;28;20249;-74
2022/05/19 13:00:06;;;;;;;5.60;2.63;;;;;;;;;;5098057;28;20243;-73
2022/05/19 13:02:39;;;;;;;4.13;3.00;;;;;;;;;;5097603;28;20278;-74
2022/05/19 13:05:13;;;;;;;7.22;2.78;;;;;;;;;;5097048;28;20657;-74
2022/05/19 13:07:44;;;;;;;7.32;2.83;;;;;;;;;;5097472;28;20200;-73
2022/05/19 13:10:17;;;;;;;3.38;3.08;;;;;;;;;;5097846;28;20263;-74
2022/05/19 13:12:50;;;;;;;4.90;2.92;;;;;;;;;;5097562;28;20236;-74
2022/05/19 13:15:23;;;;;;;9.52;3.42;;;;;;;;;;5085660;28;20581;-73
2022/05/19 13:17:52;;;;;;;3.63;2.70;;;;;;;;;;5096554;28;20233;-74
2022/05/19 13:20:22;;;;;;;5.90;2.58;;;;;;;;;;5095423;28;20268;-74
2022/05/19 13:23:08;;;;;;;4.03;2.60;;;;;;;;;;5096572;28;20201;-74
2022/05/19 13:25:48;;;;;;;5.93;2.97;;;;;;;;;;5097050;28;20710;-74
2022/05/19 13:31:05;;;;;;;9.93;3.13;;;;;;;;;;5096923;28;20209;-74
2022/05/19 13:33:37;;;;;;;7.22;2.95;;;;;;;;;;5094409;28;20253;-74
2022/05/19 13:36:07;;;;;;;6.18;3.05;;;;;;;;;;5084643;28;20227;-74
2022/05/19 13:38:35;;;;;;;2.97;2.58;;;;;;;;;;5097295;28;20259;-74
2022/05/19 13:41:06;;;;;;;5.82;2.97;;;;;;;;;;5096458;28;20209;-74
2022/05/19 13:43:34;;;;;;;6.65;3.17;;;;;;;;;;5093562;28;20720;-75
2022/05/19 13:46:04;;;;;;;4.93;2.72;;;;;;;;;;5095820;28;20275;-74
2022/05/19 13:48:41;;;;;;;7.18;2.95;;;;;;;;;;5096159;28;20205;-74
2022/05/19 13:51:12;;;;;;;6.57;3.13;;;;;;;;;;5096615;28;20209;-74
2022/05/19 13:53:43;;;;;;;3.38;2.78;;;;;;;;;;5096431;28;20229;-71
2022/05/19 13:56:12;;;;;;;4.05;3.00;;;;;;;;;;5094444;28;20224;-74
2022/05/19 13:58:45;;;;;;;3.95;2.80;;;;;;;;;;5096535;28;20239;-74
2022/05/19 14:01:17;;;;;;;4.32;3.00;;;;;;;;;;5095251;28;20256;-73
2022/05/19 14:03:45;;;;;;;6.57;2.90;;;;;;;;;;5097060;28;20240;-74
2022/05/19 14:06:14;;;;;;;9.48;3.28;;;;;;;;;;5097331;28;20264;-74
2022/05/19 14:08:42;;;;;;;7.13;3.00;;;;;;;;;;5097162;28;20201;-76
2022/05/19 14:11:12;;;;;;;5.78;2.97;;;;;;;;;;5097072;28;20202;-75
2022/05/19 14:13:40;;;;;;;7.63;2.80;;;;;;;;;;5094907;28;20232;-74
2022/05/19 14:16:09;;;;;;;8.75;3.58;;;;;;;;;;5085228;28;20689;-75
2022/05/19 14:18:39;;;;;;;4.82;2.58;;;;;;;;;;5096769;28;20205;-74
2022/05/19 14:21:09;;;;;;;7.30;2.78;;;;;;;;;;5096876;28;20229;-77
2022/05/19 14:23:46;;;;;;;6.90;2.83;;;;;;;;;;5096979;28;20236;-77
2022/05/19 14:26:18;;;;;;;25.67;4.68;;;;;;;;;;5097089;28;20261;-77
2022/05/19 14:28:47;;;;;;;5.90;2.97;;;;;;;;;;5096579;28;20205;-77
2022/05/19 14:31:16;;;;;;;18.98;4.63;;;;;;;;;;5096973;28;20297;-72
2022/05/19 14:33:52;;;;;;;29.08;6.32;;;;;;;;;;5093088;28;20221;-72
2022/05/19 14:36:22;;;;;;;17.40;4.07;;;;;;;;;;5096704;28;20244;-72
2022/05/19 14:38:52;;;;;;;7.78;3.78;;;;;;;;;;5096902;28;20237;-72
2022/05/19 14:44:11;;;;;;;6.60;3.13;;;;;;;;;;5096690;28;20203;-72
2022/05/19 14:46:43;;;;;;;8.23;3.33;;;;;;;;;;5096897;28;20221;-72
2022/05/19 14:49:12;;;;;;;8.43;2.70;;;;;;;;;;5096629;28;20695;-72
2022/05/19 14:51:41;;;;;;;4.80;2.92;;;;;;;;;;5098436;28;20209;-73
2022/05/19 14:54:11;;;;;;;7.68;3.72;;;;;;;;;;5100024;28;20274;-72
2022/05/19 14:56:42;;;;;;;7.22;3.63;;;;;;;;;;5100217;28;20225;-72
2022/05/19 14:59:11;;;;;;;4.55;2.95;;;;;;;;;;5100227;28;20201;-71
2022/05/19 15:01:39;;;;;;;6.45;3.13;;;;;;;;;;5100271;28;20233;-72
2022/05/19 15:04:08;;;;;;;4.60;3.03;;;;;;;;;;5099968;28;20683;-71
2022/05/19 15:06:36;;;;;;;7.22;3.30;;;;;;;;;;5100380;28;20244;-72
2022/05/19 15:09:05;;;;;;;6.45;3.78;;;;;;;;;;5100000;28;20229;-72
2022/05/19 15:11:34;;;;;;;4.90;3.10;;;;;;;;;;5099575;28;20248;-71
2022/05/19 15:14:03;;;;;;;8.75;3.00;;;;;;;;;;5098673;28;20647;-71
2022/05/19 15:16:31;;;;;;;8.40;3.45;;;;;;;;;;5092713;28;20272;-71
2022/05/19 15:19:00;;;;;;;4.45;3.33;;;;;;;;;;5088988;28;20209;-72
2022/05/19 15:21:28;;;;;;;4.95;3.10;;;;;;;;;;5099364;28;20703;-71
2022/05/19 15:23:57;;;;;;;5.32;3.08;;;;;;;;;;5099505;28;20755;-72
2022/05/19 15:26:26;;;;;;;4.20;3.28;;;;;;;;;;5099390;28;20257;-71
2022/05/19 15:28:54;;;;;;;8.93;4.07;;;;;;;;;;5099539;28;20220;-71